Time;durP1;ratioP1;P1;durP2;ratioP2;P2;SDS_P1;SDS_P2;PMS_P1;PMS_P2;Temp;Humidity;BMP_temperature;BMP_pressure;BME280_temperature;BME280_humidity;BME280_pressure;Samples;Min_cycle;Max_cycle;Signal;HPM_P1;HPM_P2
2021/11/12 00:04:09;;;;;;;22.70;14.20;;;23.40;90.60;;;;;;1906043;72;21154;-78
2021/11/12 00:14:06;;;;;;;23.12;15.08;;;23.50;90.70;;;;;;1871382;75;21186;-78
2021/11/12 00:16:37;;;;;;;21.50;13.72;;;23.50;90.70;;;;;;1883180;74;21158;-79
2021/11/12 00:19:08;;;;;;;19.45;13.85;;;23.50;90.60;;;;;;1888782;74;21182;-78
2021/11/12 00:21:40;;;;;;;18.10;14.10;;;23.50;90.50;;;;;;1891310;74;21118;-78
2021/11/12 00:24:11;;;;;;;19.50;14.00;;;23.50;90.50;;;;;;1892040;74;21127;-79
2021/11/12 00:26:44;;;;;;;22.35;13.98;;;23.50;90.40;;;;;;1885954;74;21115;-79
2021/11/12 00:29:22;;;;;;;19.52;13.32;;;23.60;90.40;;;;;;1900234;74;21118;-80
2021/11/12 00:37:05;;;;;;;18.07;13.30;;;23.70;90.40;;;;;;1841493;76;21201;-71
2021/11/12 00:39:37;;;;;;;20.48;13.50;;;23.70;90.40;;;;;;1839399;77;21593;-72
2021/11/12 00:47:08;;;;;;;17.73;11.97;;;23.90;89.90;;;;;;1823345;77;21153;-71
2021/11/12 00:49:38;;;;;;;17.42;12.55;;;23.90;89.50;;;;;;1772775;78;21582;-71
2021/11/12 00:52:14;;;;;;;21.65;13.35;;;24.00;89.10;;;;;;1786439;79;21230;-71
2021/11/12 00:54:39;;;;;;;18.23;14.35;;;24.00;88.80;;;;;;1771925;79;21655;-71
2021/11/12 00:57:10;;;;;;;21.77;14.18;;;24.10;89.00;;;;;;1851539;77;21553;-71
2021/11/12 00:59:41;;;;;;;17.20;11.90;;;24.00;88.80;;;;;;1857494;76;21174;-71
2021/11/12 01:02:12;;;;;;;17.20;12.30;;;24.10;88.60;;;;;;1847583;76;21178;-72
2021/11/12 01:04:43;;;;;;;16.82;11.63;;;24.10;88.20;;;;;;1830336;76;21535;-71
2021/11/12 01:07:14;;;;;;;19.32;12.90;;;24.20;87.50;;;;;;1843956;76;21116;-71
2021/11/12 01:09:45;;;;;;;16.45;11.05;;;24.20;87.60;;;;;;1845529;76;21201;-71
2021/11/12 01:12:15;;;;;;;19.52;13.70;;;24.20;87.30;;;;;;1839742;76;21150;-69
2021/11/12 01:14:46;;;;;;;16.20;11.65;;;24.20;87.30;;;;;;1847202;76;21631;-72
2021/11/12 01:17:17;;;;;;;23.62;12.15;;;24.20;87.30;;;;;;1810550;78;21147;-70
2021/11/12 01:19:48;;;;;;;20.20;11.68;;;24.30;87.30;;;;;;1847751;76;21903;-71
2021/11/12 01:22:19;;;;;;;16.60;10.88;;;24.30;87.00;;;;;;1837866;76;21110;-70
2021/11/12 01:24:51;;;;;;;16.37;10.70;;;24.30;86.60;;;;;;1844420;76;21747;-72
2021/11/12 01:27:22;;;;;;;13.88;10.43;;;24.40;86.40;;;;;;1835760;76;21201;-70
2021/11/12 01:29:54;;;;;;;15.30;10.70;;;24.40;86.40;;;;;;1831599;77;21606;-69
2021/11/12 01:32:26;;;;;;;15.63;11.18;;;24.40;86.20;;;;;;1841722;76;21195;-70
2021/11/12 01:35:00;;;;;;;15.65;10.82;;;24.40;86.40;;;;;;1862135;76;21192;-69
2021/11/12 01:37:33;;;;;;;16.73;11.68;;;24.50;86.00;;;;;;1895885;75;21166;-69
2021/11/12 01:40:07;;;;;;;19.30;10.58;;;24.50;86.30;;;;;;1878941;75;21681;-70
2021/11/12 01:42:40;;;;;;;18.02;10.58;;;24.60;86.30;;;;;;1908778;75;21768;-69
2021/11/12 01:45:11;;;;;;;13.22;9.88;;;24.60;85.90;;;;;;1880474;74;21167;-70
2021/11/12 01:48:08;;;;;;;15.60;9.95;;;24.70;85.60;;;;;;1885619;74;21138;-71
2021/11/12 01:50:19;;;;;;;16.60;10.72;;;24.80;85.30;;;;;;1882583;74;21112;-71
2021/11/12 01:52:47;;;;;;;14.13;10.08;;;24.80;85.20;;;;;;1889742;74;21153;-70
2021/11/12 01:55:40;;;;;;;15.38;10.23;;;24.80;85.40;;;;;;1887837;74;21090;-71
2021/11/12 02:00:33;;;;;;;14.40;9.68;;;24.80;85.00;;;;;;1882534;76;21196;-71
2021/11/12 02:03:05;;;;;;;16.23;10.48;;;24.80;84.90;;;;;;1884417;76;21625;-71
2021/11/12 02:05:36;;;;;;;17.27;10.78;;;24.80;85.30;;;;;;1877275;76;21166;-71
2021/11/12 02:08:07;;;;;;;12.47;9.60;;;24.90;85.20;;;;;;1884546;74;21232;-71
2021/11/12 02:10:38;;;;;;;16.50;10.20;;;25.00;85.20;;;;;;1902116;74;21159;-71
2021/11/12 02:13:15;;;;;;;13.18;10.03;;;25.00;85.20;;;;;;1879185;74;21200;-71
2021/11/12 02:15:42;;;;;;;15.88;10.38;;;25.10;85.20;;;;;;1877188;74;21099;-70
2021/11/12 02:18:15;;;;;;;14.73;10.40;;;25.10;85.30;;;;;;1865956;76;21231;-70
2021/11/12 02:20:48;;;;;;;14.80;10.40;;;25.20;85.40;;;;;;1891845;74;21609;-70
2021/11/12 02:23:19;;;;;;;15.75;9.98;;;25.20;85.30;;;;;;1888157;74;21154;-70
2021/11/12 02:25:52;;;;;;;13.50;9.20;;;25.20;85.30;;;;;;1865952;74;21665;-70
2021/11/12 02:28:25;;;;;;;12.07;9.10;;;25.30;85.20;;;;;;1873940;74;21098;-71
2021/11/12 02:30:55;;;;;;;11.95;8.98;;;25.40;84.40;;;;;;1878448;76;21183;-69
2021/11/12 02:33:27;;;;;;;14.53;8.80;;;25.50;84.10;;;;;;1876425;75;21170;-69
2021/11/12 02:35:59;;;;;;;11.95;8.70;;;25.60;83.90;;;;;;1879985;75;21126;-69
2021/11/12 02:38:33;;;;;;;11.70;8.85;;;25.70;83.80;;;;;;1874605;75;21228;-69
2021/11/12 02:41:05;;;;;;;10.70;8.38;;;25.70;82.90;;;;;;1875629;76;21156;-70
2021/11/12 02:43:38;;;;;;;13.75;9.38;;;25.80;82.90;;;;;;1876452;75;21158;-69
2021/11/12 02:46:11;;;;;;;16.05;8.68;;;25.90;82.70;;;;;;1883351;75;21690;-69
2021/11/12 02:48:42;;;;;;;11.57;8.13;;;25.90;82.40;;;;;;1875160;75;21087;-70
2021/11/12 02:51:18;;;;;;;11.60;8.05;;;26.00;82.10;;;;;;1876439;75;21116;-70
2021/11/12 02:53:49;;;;;;;11.50;7.15;;;26.10;82.00;;;;;;1878798;75;21104;-70
2021/11/12 02:56:27;;;;;;;10.82;7.37;;;26.10;81.20;;;;;;1891392;75;21138;-70
2021/11/12 02:58:55;;;;;;;9.98;7.87;;;26.20;81.30;;;;;;1869352;75;21178;-70
2021/11/12 03:01:28;;;;;;;11.05;7.28;;;26.20;81.30;;;;;;1878063;75;21182;-70
2021/11/12 03:03:59;;;;;;;10.45;6.95;;;26.40;81.30;;;;;;1881092;75;21155;-70
2021/11/12 03:06:30;;;;;;;9.50;7.72;;;26.40;80.70;;;;;;1874681;76;21163;-70
2021/11/12 03:09:01;;;;;;;9.78;7.08;;;26.50;80.60;;;;;;1871954;75;21656;-71
2021/11/12 03:11:32;;;;;;;12.15;8.03;;;26.60;80.40;;;;;;1876193;75;21641;-70
2021/11/12 03:14:05;;;;;;;12.80;7.58;;;26.60;81.30;;;;;;1855032;75;22325;-70
2021/11/12 03:16:37;;;;;;;10.70;7.87;;;26.70;80.30;;;;;;1878990;76;21280;-70
2021/11/12 03:19:10;;;;;;;12.47;8.10;;;26.80;80.10;;;;;;1878609;75;21201;-70
2021/11/12 03:21:43;;;;;;;9.25;5.78;;;26.90;79.90;;;;;;1880787;75;21163;-70
2021/11/12 03:25:04;;;;;;;10.65;6.22;;;27.10;79.00;;;;;;1881389;75;21103;-71
2021/11/12 03:27:06;;;;;;;9.05;5.58;;;27.10;77.80;;;;;;1875255;75;21115;-71
2021/11/12 04:00:13;;;;;;;9.38;6.08;;;28.20;74.80;;;;;;1871891;76;21622;-71
2021/11/12 04:17:57;;;;;;;10.05;5.30;;;28.60;73.50;;;;;;1867122;75;21769;-69
2021/11/12 04:40:58;;;;;;;5.72;4.85;;;29.10;70.70;;;;;;1873877;75;21172;-70
2021/11/12 05:56:40;;;;;;;8.90;5.22;;;30.00;66.80;;;;;;1901863;73;21085;-71
2021/11/12 05:59:12;;;;;;;7.75;5.30;;;30.00;66.80;;;;;;1903885;74;21088;-70
2021/11/12 06:01:46;;;;;;;7.72;5.20;;;30.10;67.00;;;;;;1903413;74;21111;-70
2021/11/12 06:04:17;;;;;;;6.67;5.15;;;30.10;66.10;;;;;;1913817;74;21631;-70
2021/11/12 06:06:48;;;;;;;6.58;5.40;;;30.20;66.50;;;;;;1904025;73;21068;-70
2021/11/12 06:09:19;;;;;;;7.80;5.53;;;30.20;66.60;;;;;;1912386;74;21663;-70
2021/11/12 06:11:53;;;;;;;7.95;4.97;;;30.20;66.90;;;;;;1900879;73;21069;-70
2021/11/12 06:14:25;;;;;;;8.70;5.22;;;30.30;66.40;;;;;;1912172;73;21653;-71
2021/11/12 06:16:56;;;;;;;6.67;4.92;;;30.30;65.90;;;;;;1904873;74;21633;-71
2021/11/12 06:19:27;;;;;;;7.00;5.22;;;30.30;66.00;;;;;;1916944;73;21065;-71
2021/11/12 06:21:58;;;;;;;7.37;4.97;;;30.30;65.10;;;;;;1899857;74;21186;-71
2021/11/12 06:24:30;;;;;;;7.72;4.85;;;30.40;66.20;;;;;;1914326;73;21605;-71
2021/11/12 06:27:00;;;;;;;7.95;4.65;;;30.40;64.90;;;;;;1919327;73;21690;-70
2021/11/12 06:29:31;;;;;;;8.93;4.47;;;30.30;65.00;;;;;;1905190;73;21590;-70
2021/11/12 06:32:02;;;;;;;9.48;4.75;;;30.30;66.40;;;;;;1913781;73;21103;-70
2021/11/12 06:34:33;;;;;;;7.78;4.53;;;30.30;65.40;;;;;;1900789;74;21119;-71
2021/11/12 06:37:06;;;;;;;5.92;4.62;;;30.30;64.60;;;;;;1903949;74;21611;-72
2021/11/12 06:39:37;;;;;;;6.83;4.85;;;30.30;65.60;;;;;;1916325;74;21218;-72
2021/11/12 06:42:15;;;;;;;6.42;4.80;;;30.30;65.20;;;;;;1911384;74;21091;-70
2021/11/12 06:52:21;;;;;;;7.47;3.98;;;30.10;65.70;;;;;;1921847;73;21603;-70
2021/11/12 06:54:52;;;;;;;13.95;4.80;;;30.00;65.20;;;;;;1917284;73;21221;-69
2021/11/12 06:57:25;;;;;;;10.35;4.92;;;30.10;65.90;;;;;;1915839;73;21240;-70
2021/11/12 06:59:56;;;;;;;6.95;4.28;;;30.10;66.30;;;;;;1915630;73;21128;-70
2021/11/12 07:02:27;;;;;;;7.00;4.90;;;30.20;66.20;;;;;;1906601;73;21037;-70
2021/11/12 07:04:58;;;;;;;7.92;4.30;;;30.20;66.40;;;;;;1910783;73;21096;-69
2021/11/12 07:07:29;;;;;;;6.55;4.60;;;30.20;66.50;;;;;;1911268;73;21245;-70
2021/11/12 07:10:00;;;;;;;6.80;5.10;;;30.10;66.50;;;;;;1908474;73;21128;-68
2021/11/12 07:12:32;;;;;;;7.17;4.37;;;30.10;67.00;;;;;;1911687;74;21124;-69
2021/11/12 07:15:03;;;;;;;8.48;4.65;;;29.90;67.30;;;;;;1914809;73;21368;-69
2021/11/12 07:17:34;;;;;;;6.72;3.83;;;29.90;66.90;;;;;;1906563;75;21076;-69
2021/11/12 07:20:06;;;;;;;6.60;4.33;;;29.90;66.90;;;;;;1912607;75;21088;-69
2021/11/12 07:22:37;;;;;;;5.97;4.47;;;29.90;67.10;;;;;;1909147;73;21214;-70
2021/11/12 07:25:08;;;;;;;5.78;4.05;;;30.00;67.70;;;;;;1885595;74;21107;-69
2021/11/12 07:27:40;;;;;;;5.05;4.12;;;30.10;67.30;;;;;;1900772;74;21146;-70
2021/11/12 07:30:15;;;;;;;11.57;4.40;;;30.20;67.40;;;;;;1914880;74;21064;-70
2021/11/12 07:32:47;;;;;;;8.20;4.62;;;30.30;67.10;;;;;;1895698;73;21151;-70
2021/11/12 07:35:23;;;;;;;8.80;5.28;;;30.30;67.10;;;;;;1908411;75;21237;-71
2021/11/12 07:37:58;;;;;;;6.25;4.72;;;30.20;67.50;;;;;;1912257;73;21144;-68
2021/11/12 07:40:26;;;;;;;11.63;4.50;;;30.10;67.40;;;;;;1911278;75;21173;-71
2021/11/12 07:45:36;;;;;;;6.08;4.17;;;30.00;66.90;;;;;;1906979;74;21671;-71
2021/11/12 07:47:59;;;;;;;7.80;4.95;;;29.90;67.10;;;;;;1907999;74;21210;-71
2021/11/12 07:50:30;;;;;;;5.72;3.92;;;29.80;67.70;;;;;;1910284;73;21115;-71
2021/11/12 07:53:00;;;;;;;5.22;4.10;;;29.70;67.70;;;;;;1907579;73;21630;-70
2021/11/12 07:55:31;;;;;;;5.40;4.28;;;29.70;68.20;;;;;;1913754;73;21180;-70
2021/11/12 07:58:03;;;;;;;5.45;3.90;;;29.70;68.20;;;;;;1910600;74;21115;-73
2021/11/12 08:00:35;;;;;;;5.95;4.50;;;29.70;67.90;;;;;;1910600;73;21536;-72
2021/11/12 08:03:06;;;;;;;6.47;3.65;;;29.60;67.80;;;;;;1892647;75;21606;-72
2021/11/12 08:05:39;;;;;;;9.60;5.45;;;29.60;68.00;;;;;;1905089;74;21056;-70
2021/11/12 08:08:12;;;;;;;4.45;3.60;;;29.50;68.10;;;;;;1871639;75;21178;-70
2021/11/12 08:13:24;;;;;;;4.92;3.60;;;29.50;69.00;;;;;;1857225;75;21187;-71
2021/11/12 08:15:59;;;;;;;6.62;4.20;;;29.40;68.90;;;;;;1864610;75;21192;-71
2021/11/12 08:18:39;;;;;;;4.87;3.22;;;29.40;69.20;;;;;;1871120;76;21192;-71
2021/11/12 08:20:59;;;;;;;6.47;3.55;;;29.40;69.10;;;;;;1867419;76;21144;-70
2021/11/12 08:23:43;;;;;;;5.55;3.50;;;29.40;69.30;;;;;;1897137;74;21104;-70
2021/11/12 08:26:13;;;;;;;7.15;3.62;;;29.40;69.20;;;;;;1908017;73;21155;-71
2021/11/12 08:28:52;;;;;;;5.42;3.87;;;29.30;69.50;;;;;;1910027;73;21091;-72
2021/11/12 08:31:25;;;;;;;9.15;3.60;;;29.30;69.50;;;;;;1908672;73;21612;-71
2021/11/12 08:33:38;;;;;;;8.53;3.62;;;29.30;69.60;;;;;;1904390;73;21170;-72
2021/11/12 08:41:16;;;;;;;5.67;3.90;;;29.30;70.10;;;;;;1842962;76;21170;-71
2021/11/12 08:43:49;;;;;;;6.83;4.78;;;29.30;70.40;;;;;;1921089;73;21101;-71
2021/11/12 08:51:20;;;;;;;9.20;4.05;;;29.30;70.50;;;;;;1874726;75;21179;-72
2021/11/12 08:53:52;;;;;;;5.78;3.90;;;29.20;70.60;;;;;;1877432;75;21237;-72
2021/11/12 08:56:23;;;;;;;8.88;4.30;;;29.20;70.80;;;;;;1879693;75;21103;-72
2021/11/12 08:58:54;;;;;;;8.45;4.60;;;29.20;70.80;;;;;;1846039;76;21228;-72
2021/11/12 09:01:25;;;;;;;7.08;4.58;;;29.20;70.80;;;;;;1875671;75;21080;-72
2021/11/12 09:03:56;;;;;;;6.28;4.45;;;29.10;70.80;;;;;;1853902;76;21160;-72
2021/11/12 09:06:28;;;;;;;5.95;4.55;;;29.10;70.90;;;;;;1852489;77;21148;-72
2021/11/12 09:08:59;;;;;;;9.65;6.50;;;29.10;71.20;;;;;;1850604;76;21100;-72
2021/11/12 09:11:30;;;;;;;13.08;5.95;;;29.10;71.20;;;;;;1840475;77;21218;-72
2021/11/12 09:14:04;;;;;;;6.40;4.17;;;29.10;71.40;;;;;;1848244;76;21076;-72
2021/11/12 09:16:36;;;;;;;6.17;4.65;;;29.00;71.40;;;;;;1927991;73;21614;-71
2021/11/12 09:19:07;;;;;;;8.25;5.22;;;29.00;71.60;;;;;;1907743;73;21115;-73
2021/11/12 09:21:38;;;;;;;6.67;4.87;;;29.00;71.70;;;;;;1913898;74;21181;-72
2021/11/12 09:24:11;;;;;;;7.03;5.42;;;29.00;71.80;;;;;;1921393;74;21221;-71
2021/11/12 09:26:43;;;;;;;5.70;4.60;;;29.00;71.80;;;;;;1906949;73;21818;-71
2021/11/12 09:29:14;;;;;;;7.25;4.85;;;29.00;72.00;;;;;;1919157;73;21543;-71
2021/11/12 09:31:45;;;;;;;8.98;5.37;;;29.00;72.10;;;;;;1913535;73;21607;-70
2021/11/12 09:34:16;;;;;;;7.60;5.05;;;28.90;72.10;;;;;;1907416;73;21698;-71
2021/11/12 09:36:48;;;;;;;9.88;5.17;;;28.90;72.30;;;;;;1916298;73;21173;-72
2021/11/12 09:39:19;;;;;;;7.12;5.22;;;28.90;72.40;;;;;;1887532;74;21089;-72
2021/11/12 09:41:50;;;;;;;9.95;5.00;;;28.90;72.60;;;;;;1875086;75;21212;-72
2021/11/12 09:44:21;;;;;;;10.65;5.30;;;28.90;72.70;;;;;;1876525;75;21128;-71
2021/11/12 09:46:52;;;;;;;6.58;5.00;;;28.90;72.80;;;;;;1867531;75;21501;-71
2021/11/12 09:49:23;;;;;;;7.70;5.05;;;28.90;72.90;;;;;;1884966;75;21177;-71
2021/11/12 09:51:54;;;;;;;7.65;5.40;;;28.80;72.90;;;;;;1870229;75;21132;-70
2021/11/12 09:54:25;;;;;;;7.92;5.50;;;28.80;73.20;;;;;;1862181;75;21642;-70
2021/11/12 09:56:56;;;;;;;6.37;5.10;;;28.80;73.10;;;;;;1870960;75;21139;-71
2021/11/12 09:59:33;;;;;;;8.48;5.28;;;28.80;73.30;;;;;;1872338;75;21202;-70
2021/11/12 10:01:59;;;;;;;9.90;5.53;;;28.80;73.50;;;;;;1868491;75;21667;-69
2021/11/12 10:04:31;;;;;;;7.90;5.70;;;28.80;73.40;;;;;;1876067;75;21072;-71
2021/11/12 10:07:03;;;;;;;11.63;5.92;;;28.80;73.60;;;;;;1867835;75;21833;-70
2021/11/12 10:09:34;;;;;;;14.07;5.80;;;28.80;73.70;;;;;;1872172;75;21639;-71
2021/11/12 10:12:07;;;;;;;8.43;6.33;;;28.80;73.80;;;;;;1867395;75;21609;-69
2021/11/12 10:14:51;;;;;;;6.85;5.47;;;28.80;73.80;;;;;;1877496;75;21229;-70
2021/11/12 10:17:14;;;;;;;10.45;6.47;;;28.70;73.80;;;;;;1869213;75;21131;-70
2021/11/12 10:19:47;;;;;;;9.38;6.15;;;28.80;74.00;;;;;;1877494;75;21139;-71
2021/11/12 10:22:19;;;;;;;14.90;6.58;;;28.70;74.00;;;;;;1868614;75;21152;-70
2021/11/12 10:24:52;;;;;;;9.75;6.20;;;28.70;74.10;;;;;;1867140;75;21142;-71
2021/11/12 10:27:27;;;;;;;9.50;6.40;;;28.70;74.10;;;;;;1865400;75;21136;-70
2021/11/12 10:30:00;;;;;;;11.28;7.25;;;28.70;74.30;;;;;;1867543;75;21642;-70
2021/11/12 10:32:33;;;;;;;12.35;7.28;;;28.60;74.30;;;;;;1866489;75;21711;-70
2021/11/12 10:35:09;;;;;;;10.40;6.62;;;28.60;74.20;;;;;;1848078;75;21255;-71
2021/11/12 10:37:40;;;;;;;14.28;8.00;;;28.60;74.40;;;;;;1873415;74;21124;-71
2021/11/12 10:40:14;;;;;;;13.53;6.90;;;28.60;74.50;;;;;;1906844;73;21243;-72
2021/11/12 10:42:47;;;;;;;10.20;6.80;;;28.50;74.30;;;;;;1913199;73;21147;-71
2021/11/12 10:45:20;;;;;;;11.55;7.10;;;28.50;74.40;;;;;;1917879;73;21146;-72
2021/11/12 10:47:52;;;;;;;11.65;6.60;;;28.50;74.40;;;;;;1914095;73;21710;-71
2021/11/12 10:50:25;;;;;;;10.13;6.12;;;28.40;74.40;;;;;;1902593;74;21124;-70
2021/11/12 10:52:59;;;;;;;8.20;5.95;;;28.40;74.50;;;;;;1900994;74;21147;-71
2021/11/12 10:55:30;;;;;;;11.65;6.00;;;28.30;74.70;;;;;;1911201;73;21118;-72
2021/11/12 10:58:06;;;;;;;10.45;6.53;;;28.30;74.80;;;;;;1915319;73;21172;-71
2021/11/12 11:00:39;;;;;;;8.40;5.85;;;28.30;74.90;;;;;;1909377;73;21193;-72
2021/11/12 11:03:14;;;;;;;11.97;7.83;;;28.20;75.00;;;;;;1910130;73;21674;-70
2021/11/12 11:05:46;;;;;;;11.57;7.22;;;28.20;75.10;;;;;;1902516;74;21124;-70
2021/11/12 11:08:16;;;;;;;8.95;6.08;;;28.20;75.20;;;;;;1913315;73;21603;-70
2021/11/12 11:10:47;;;;;;;10.20;6.20;;;28.20;75.40;;;;;;1912813;73;21076;-71
2021/11/12 11:13:20;;;;;;;11.05;7.17;;;28.20;75.40;;;;;;1898172;73;21726;-70
2021/11/12 11:15:54;;;;;;;14.87;7.87;;;28.10;75.40;;;;;;1914765;73;21627;-70
2021/11/12 11:18:29;;;;;;;11.12;8.00;;;28.10;75.40;;;;;;1901498;74;21683;-71
2021/11/12 11:21:06;;;;;;;14.68;7.33;;;28.10;75.50;;;;;;1904198;73;21205;-71
2021/11/12 11:23:36;;;;;;;15.93;7.50;;;28.00;75.50;;;;;;1915149;73;21688;-72
2021/11/12 11:26:07;;;;;;;9.98;7.30;;;28.00;75.70;;;;;;1894139;74;21135;-71
2021/11/12 11:28:39;;;;;;;14.33;8.10;;;28.00;75.80;;;;;;1913211;73;21550;-71
2021/11/12 11:31:12;;;;;;;20.08;9.68;;;27.90;75.50;;;;;;1905050;73;21139;-71
2021/11/12 11:33:45;;;;;;;10.93;8.35;;;27.90;75.50;;;;;;1909212;73;21120;-71
2021/11/12 11:36:18;;;;;;;12.93;7.90;;;27.90;75.70;;;;;;1892748;74;21466;-71
2021/11/12 11:38:51;;;;;;;11.30;9.20;;;27.80;75.70;;;;;;1901938;73;21057;-72
2021/11/12 11:41:24;;;;;;;12.85;8.35;;;27.80;75.80;;;;;;1898230;74;21191;-72
2021/11/12 11:43:57;;;;;;;10.63;8.30;;;27.80;76.00;;;;;;1875534;74;21086;-71
2021/11/12 11:46:30;;;;;;;11.93;8.00;;;27.70;76.00;;;;;;1892605;74;21124;-71
2021/11/12 11:49:02;;;;;;;12.95;8.75;;;27.70;76.20;;;;;;1884212;74;21176;-71
2021/11/12 11:51:36;;;;;;;9.85;7.58;;;27.70;77.20;;;;;;1892281;74;21231;-72
2021/11/12 11:54:09;;;;;;;13.03;8.20;;;27.60;76.50;;;;;;1881212;74;21172;-71
2021/11/12 11:56:42;;;;;;;11.95;7.95;;;27.60;76.70;;;;;;1885761;74;21738;-73
2021/11/12 11:59:14;;;;;;;12.60;7.05;;;27.60;76.70;;;;;;1866111;74;21196;-71
2021/11/12 12:01:47;;;;;;;11.93;7.58;;;27.60;76.90;;;;;;1891563;74;21150;-69
2021/11/12 12:04:18;;;;;;;14.15;8.50;;;27.50;77.00;;;;;;1891506;74;21683;-71
2021/11/12 12:06:51;;;;;;;12.20;7.85;;;27.50;76.90;;;;;;1880499;74;21204;-71
2021/11/12 12:09:28;;;;;;;14.07;7.78;;;27.50;77.00;;;;;;1889373;74;21170;-71
2021/11/12 12:11:56;;;;;;;12.03;7.40;;;27.50;77.20;;;;;;1883297;74;21118;-70
2021/11/12 12:14:31;;;;;;;12.85;9.28;;;27.50;77.30;;;;;;1877319;74;21120;-70
2021/11/12 12:17:03;;;;;;;12.88;8.78;;;27.50;77.40;;;;;;1881376;74;21216;-70
2021/11/12 12:19:46;;;;;;;12.88;8.58;;;27.40;77.40;;;;;;1888932;74;21102;-71
2021/11/12 12:22:25;;;;;;;12.25;10.68;;;27.50;77.40;;;;;;1884803;74;21207;-70
2021/11/12 12:32:53;;;;;;;19.90;12.95;;;27.40;77.90;;;;;;1879010;74;21626;-71
2021/11/12 12:35:14;;;;;;;12.07;9.30;;;27.40;77.70;;;;;;1889235;74;21642;-71
2021/11/12 13:21:08;;;;;;;26.20;12.70;;;27.00;80.50;;;;;;1910706;73;21615;-79
2021/11/12 13:23:34;;;;;;;21.95;13.18;;;27.00;80.80;;;;;;1923441;73;21111;-80
2021/11/12 13:26:03;;;;;;;18.60;13.70;;;27.00;81.00;;;;;;1907693;73;21123;-80
2021/11/12 13:28:36;;;;;;;23.32;14.40;;;26.90;80.90;;;;;;1907278;73;21544;-80
2021/11/12 13:31:10;;;;;;;23.98;13.98;;;26.90;80.80;;;;;;1906761;74;21134;-78
2021/11/12 13:33:43;;;;;;;21.35;13.32;;;26.90;81.00;;;;;;1908863;73;21567;-77
2021/11/12 13:36:20;;;;;;;22.15;12.23;;;26.80;81.00;;;;;;1906115;74;21140;-78
2021/11/12 13:38:52;;;;;;;20.27;13.50;;;26.80;81.00;;;;;;1906103;73;21805;-77
2021/11/12 13:41:25;;;;;;;23.45;12.37;;;26.80;80.90;;;;;;1913822;73;21193;-79
2021/11/12 13:43:58;;;;;;;17.48;11.55;;;26.70;81.30;;;;;;1910701;74;21175;-80
2021/11/12 13:46:30;;;;;;;16.10;11.97;;;26.70;81.40;;;;;;1905854;74;21182;-79
2021/11/12 13:49:01;;;;;;;18.77;12.68;;;26.70;81.40;;;;;;1909835;73;21082;-77
2021/11/12 13:51:33;;;;;;;20.82;11.80;;;26.70;81.40;;;;;;1911914;73;21619;-78
2021/11/12 13:54:06;;;;;;;22.20;12.00;;;26.70;81.70;;;;;;1912042;74;21096;-79
2021/11/12 13:56:37;;;;;;;23.38;11.43;;;26.60;81.40;;;;;;1916945;74;21500;-78
2021/11/12 13:59:09;;;;;;;16.27;11.63;;;26.60;81.90;;;;;;1917044;73;21172;-78
2021/11/12 14:01:40;;;;;;;21.10;11.93;;;26.60;81.90;;;;;;1918284;74;21569;-78
2021/11/12 14:04:15;;;;;;;20.08;12.37;;;26.50;82.10;;;;;;1912500;74;21601;-77
2021/11/12 14:06:47;;;;;;;19.95;11.78;;;26.50;82.30;;;;;;1918404;74;21669;-77
2021/11/12 14:09:20;;;;;;;18.60;11.95;;;26.50;82.20;;;;;;1919763;73;21649;-78
2021/11/12 14:11:53;;;;;;;21.02;12.82;;;26.50;82.60;;;;;;1914441;73;21502;-78
2021/11/12 14:14:24;;;;;;;18.15;11.90;;;26.50;82.60;;;;;;1910859;73;21162;-78
2021/11/12 14:17:00;;;;;;;17.92;12.65;;;26.40;82.60;;;;;;1912747;73;21605;-78
2021/11/12 14:22:12;;;;;;;16.70;12.50;;;26.40;82.90;;;;;;1919550;73;21567;-77
2021/11/12 14:27:20;;;;;;;15.85;12.23;;;26.30;83.10;;;;;;1910711;73;21137;-76
2021/11/12 14:32:32;;;;;;;19.77;13.00;;;26.30;83.20;;;;;;1920834;73;21884;-78
2021/11/12 14:37:33;;;;;;;18.80;13.28;;;26.20;83.80;;;;;;1908090;73;21179;-79
2021/11/12 14:40:29;;;;;;;19.52;14.07;;;26.20;84.60;;;;;;1908346;73;21702;-78
2021/11/12 14:42:47;;;;;;;21.55;15.00;;;26.20;84.00;;;;;;1921342;72;21163;-78
2021/11/12 14:45:10;;;;;;;21.87;15.03;;;26.20;84.40;;;;;;1885849;74;21177;-80
2021/11/12 14:50:19;;;;;;;22.90;15.03;;;26.20;83.90;;;;;;1887996;74;21998;-77
2021/11/12 14:52:50;;;;;;;28.37;17.00;;;26.20;84.00;;;;;;1855091;76;21197;-79
2021/11/12 14:55:24;;;;;;;23.22;15.93;;;26.10;84.10;;;;;;1860282;76;21683;-79
2021/11/12 14:57:56;;;;;;;31.60;14.85;;;26.10;84.60;;;;;;1868295;76;21152;-77
2021/11/12 15:00:27;;;;;;;22.05;14.90;;;26.10;84.40;;;;;;1869469;76;21063;-78
2021/11/12 15:02:58;;;;;;;19.70;14.13;;;26.00;84.80;;;;;;1875419;76;21631;-78
2021/11/12 15:05:29;;;;;;;20.10;14.80;;;26.00;84.70;;;;;;1927884;73;21639;-77
2021/11/12 15:10:40;;;;;;;20.65;14.30;;;26.00;85.00;;;;;;1863121;76;21167;-77
2021/11/12 15:13:11;;;;;;;20.12;14.35;;;26.00;84.70;;;;;;1876315;74;21970;-77
2021/11/12 15:15:41;;;;;;;23.50;13.83;;;26.00;85.20;;;;;;1838390;77;21135;-77
2021/11/12 15:18:13;;;;;;;21.70;14.38;;;26.00;85.10;;;;;;1902951;75;21196;-78
2021/11/12 15:20:44;;;;;;;19.42;13.68;;;26.00;85.10;;;;;;1911029;73;21111;-78
2021/11/12 15:30:59;;;;;;;22.75;14.38;;;25.90;85.50;;;;;;1916252;73;22096;-77
2021/11/12 15:33:24;;;;;;;20.77;13.32;;;25.80;85.50;;;;;;1923169;73;21151;-78
2021/11/12 15:35:57;;;;;;;19.35;13.32;;;25.80;85.60;;;;;;1885227;75;21192;-78
2021/11/12 15:41:05;;;;;;;17.25;13.13;;;25.80;85.70;;;;;;1867341;75;21204;-77
2021/11/12 15:46:09;;;;;;;17.70;13.25;;;25.80;85.60;;;;;;1880209;75;21597;-78
2021/11/12 15:48:39;;;;;;;20.92;14.83;;;25.70;86.10;;;;;;1868120;75;21157;-78
2021/11/12 15:53:57;;;;;;;18.17;13.15;;;25.60;86.20;;;;;;1852889;75;21118;-77
2021/11/12 16:02:20;;;;;;;17.85;13.32;;;25.60;86.30;;;;;;1899574;75;21501;-76
2021/11/12 16:09:23;;;;;;;21.65;13.38;;;25.60;86.70;;;;;;1897716;75;21119;-77
2021/11/12 16:19:10;;;;;;;18.25;13.78;;;25.50;87.10;;;;;;1865618;75;21207;-76
2021/11/12 16:26:44;;;;;;;20.62;14.90;;;25.40;87.60;;;;;;1903612;74;21147;-78
2021/11/12 16:31:44;;;;;;;19.07;14.45;;;25.20;87.50;;;;;;1911318;73;21147;-77
2021/11/12 16:34:18;;;;;;;22.73;15.18;;;25.20;88.10;;;;;;1910088;73;21084;-77
2021/11/12 16:36:56;;;;;;;22.17;16.45;;;25.20;88.00;;;;;;1911901;74;21845;-78
2021/11/12 16:39:27;;;;;;;17.65;14.38;;;25.10;87.90;;;;;;1873765;75;21049;-78
2021/11/12 16:42:07;;;;;;;21.50;15.35;;;25.10;87.90;;;;;;1920126;73;21181;-77
2021/11/12 16:44:44;;;;;;;25.17;14.93;;;25.10;88.90;;;;;;1913563;74;21088;-78
2021/11/12 16:52:09;;;;;;;19.17;14.78;;;25.10;88.50;;;;;;1895843;74;21092;-78
2021/11/12 16:54:43;;;;;;;22.55;14.95;;;25.10;88.60;;;;;;1873371;74;21669;-79
2021/11/12 16:57:28;;;;;;;21.42;15.93;;;25.10;88.50;;;;;;1837763;76;21100;-79
2021/11/12 17:04:58;;;;;;;18.82;14.23;;;25.00;89.40;;;;;;1835834;77;21134;-78
2021/11/12 17:47:57;;;;;;;20.40;14.58;;;24.70;90.20;;;;;;1913477;73;21616;-79
2021/11/12 18:03:22;;;;;;;20.88;15.28;;;24.60;90.30;;;;;;1899840;74;21123;-80
2021/11/12 18:05:52;;;;;;;21.30;15.35;;;24.60;90.30;;;;;;1909946;74;21611;-78
2021/11/12 18:08:48;;;;;;;21.80;16.15;;;24.60;90.30;;;;;;1907487;74;21128;-79
2021/11/12 21:45:24;;;;;;;17.07;12.73;;;23.60;90.50;;;;;;1906608;74;21140;-77
2021/11/12 21:47:54;;;;;;;18.02;13.62;;;23.50;90.60;;;;;;1903933;74;21136;-77
2021/11/12 21:50:25;;;;;;;21.12;15.05;;;23.50;90.70;;;;;;1912205;74;22623;-77
2021/11/12 21:52:56;;;;;;;19.50;15.18;;;23.60;90.90;;;;;;1908719;74;21131;-79
2021/11/12 21:55:26;;;;;;;18.85;14.83;;;23.60;91.10;;;;;;1918791;74;21128;-78
2021/11/12 21:57:57;;;;;;;17.50;14.38;;;23.50;91.00;;;;;;1909973;74;21831;-78
2021/11/12 22:00:29;;;;;;;21.68;14.53;;;23.60;91.10;;;;;;1911367;74;21644;-78
2021/11/12 22:03:00;;;;;;;19.92;14.65;;;23.60;91.10;;;;;;1915066;74;21085;-77
2021/11/12 22:05:31;;;;;;;20.32;15.32;;;23.50;91.30;;;;;;1906199;74;21547;-78
2021/11/12 22:08:02;;;;;;;22.37;15.18;;;23.50;91.30;;;;;;1907097;74;21061;-79
2021/11/12 22:10:34;;;;;;;21.02;15.28;;;23.60;91.00;;;;;;1903668;74;21104;-79
2021/11/12 22:13:05;;;;;;;20.35;14.45;;;23.50;91.30;;;;;;1908390;73;21582;-78
2021/11/12 22:15:39;;;;;;;22.07;15.90;;;23.50;91.20;;;;;;1913334;74;21186;-78
2021/11/12 22:18:13;;;;;;;22.80;15.90;;;23.50;91.30;;;;;;1912817;74;21116;-78
2021/11/12 22:20:42;;;;;;;23.60;15.70;;;23.50;91.30;;;;;;1920085;74;21179;-78
2021/11/12 22:23:13;;;;;;;24.05;17.12;;;23.50;91.20;;;;;;1917714;74;21152;-78
2021/11/12 22:25:45;;;;;;;20.82;16.30;;;23.40;91.20;;;;;;1917509;74;21627;-79
2021/11/12 22:28:15;;;;;;;21.57;15.55;;;23.40;91.20;;;;;;1911896;74;21559;-78
2021/11/12 22:30:47;;;;;;;24.10;17.00;;;23.40;91.20;;;;;;1919449;72;21135;-78